createdAt,value
2023-05-20T00:00:53.683Z,9.711636
2023-05-20T00:01:53.669Z,9.711679
2023-05-20T00:02:53.773Z,9.711661
2023-05-20T00:03:53.832Z,9.711652
2023-05-20T00:04:53.999Z,9.711717
2023-05-20T00:05:53.659Z,9.711819
2023-05-20T00:06:53.749Z,9.711918
2023-05-20T00:07:53.618Z,9.712485
2023-05-20T00:08:53.632Z,9.712177
2023-05-20T00:09:53.608Z,9.711772
2023-05-20T00:10:53.607Z,9.711695
2023-05-20T00:11:53.598Z,9.711687
2023-05-20T00:12:53.603Z,9.711697
2023-05-20T00:13:53.595Z,9.711660
2023-05-20T00:14:54.621Z,9.711622
2023-05-20T00:15:54.575Z,9.711677
2023-05-20T00:16:53.975Z,9.711633
2023-05-20T00:17:53.581Z,9.711615
2023-05-20T00:18:53.574Z,9.711628
2023-05-20T00:19:53.530Z,9.711605
2023-05-20T00:25:43.991Z,9.712200
2023-05-20T00:26:43.988Z,9.711626
2023-05-20T00:27:43.972Z,9.711651
2023-05-20T00:28:43.980Z,9.711669
2023-05-20T00:29:43.962Z,9.711768
2023-05-20T00:30:43.941Z,9.711714
2023-05-20T00:31:44.020Z,9.711685
2023-05-20T00:32:43.989Z,9.711631
2023-05-20T00:33:43.923Z,9.711639
2023-05-20T00:34:43.908Z,9.711632
2023-05-20T00:35:43.909Z,9.711584
2023-05-20T00:36:43.895Z,9.711595
2023-05-20T00:37:43.907Z,9.711586
2023-05-20T00:38:43.916Z,9.711616
2023-05-20T00:39:43.902Z,9.711602
2023-05-20T00:40:43.881Z,9.711607
2023-05-20T00:41:43.865Z,9.711652
2023-05-20T00:42:43.897Z,9.711651
2023-05-20T00:43:43.841Z,9.711711
2023-05-20T00:44:43.911Z,9.711619
2023-05-20T00:45:43.832Z,9.711515
2023-05-20T00:46:43.826Z,9.711610
2023-05-20T00:47:43.864Z,9.711645
2023-05-20T00:48:43.821Z,9.711718
2023-05-20T00:49:43.800Z,9.711683
2023-05-20T00:50:43.779Z,9.711633
2023-05-20T00:51:43.789Z,9.711627
2023-05-20T00:52:43.796Z,9.711663
2023-05-20T00:53:43.771Z,9.711658
2023-05-20T00:54:43.755Z,9.711638
2023-05-20T00:55:43.758Z,9.711647
2023-05-20T00:56:43.741Z,9.711621
2023-05-20T00:57:43.746Z,9.711668
2023-05-20T00:58:43.791Z,9.711654
2023-05-20T00:59:44.912Z,9.711643
2023-05-20T01:00:44.739Z,9.711637
2023-05-20T01:01:44.347Z,9.711645
2023-05-20T01:02:43.784Z,9.711616
2023-05-20T01:03:43.721Z,9.711652
2023-05-20T01:04:43.693Z,9.711637
2023-05-20T01:05:43.709Z,9.711584
2023-05-20T01:06:43.676Z,9.711563
2023-05-20T01:07:43.655Z,9.711574
2023-05-20T01:08:44.456Z,9.711587
2023-05-20T01:09:43.632Z,9.711577
2023-05-20T01:10:43.620Z,9.711617
2023-05-20T01:11:43.633Z,9.711559
2023-05-20T01:12:43.613Z,9.711514
2023-05-20T01:13:43.619Z,9.711534
2023-05-20T01:14:43.599Z,9.711493
2023-05-20T01:15:43.629Z,9.711540
2023-05-20T01:16:43.577Z,9.711551
2023-05-20T01:17:44.337Z,9.711550
2023-05-20T01:18:43.642Z,9.711559
2023-05-20T01:19:43.563Z,9.711574
2023-05-20T01:20:43.577Z,9.711464
2023-05-20T01:21:43.549Z,9.711461
2023-05-20T01:22:43.554Z,9.711446
2023-05-20T01:23:44.255Z,9.711444
2023-05-20T01:24:43.512Z,9.711475
2023-05-20T01:25:43.531Z,9.711481
2023-05-20T01:26:43.509Z,9.711535
2023-05-20T01:27:43.511Z,9.711526
2023-05-20T01:28:43.482Z,9.711570
2023-05-20T01:29:43.503Z,9.711553
2023-05-20T01:30:44.553Z,9.711446
2023-05-20T01:31:43.493Z,9.711590
2023-05-20T01:32:43.498Z,9.711654
2023-05-20T01:33:43.463Z,9.711726
2023-05-20T01:34:43.457Z,9.711717
2023-05-20T01:35:43.448Z,9.711740
2023-05-20T01:36:43.445Z,9.711759
2023-05-20T01:37:43.446Z,9.711609
2023-05-20T01:38:43.417Z,9.711597
2023-05-20T01:39:43.427Z,9.711555
2023-05-20T01:40:43.418Z,9.711658
2023-05-20T01:41:43.403Z,9.711608
2023-05-20T01:42:43.393Z,9.711644
2023-05-20T01:43:43.377Z,9.711662
2023-05-20T01:44:43.372Z,9.711639
2023-05-20T01:45:43.400Z,9.711797
2023-05-20T01:46:43.457Z,9.711948
2023-05-20T01:47:43.381Z,9.711691
2023-05-20T01:48:43.345Z,9.711661
2023-05-20T01:49:43.341Z,9.711669
2023-05-20T01:50:43.334Z,9.711676
2023-05-20T01:51:43.305Z,9.711783
2023-05-20T01:52:43.309Z,9.711699
2023-05-20T01:53:43.293Z,9.711778
2023-05-20T01:54:43.293Z,9.711658
2023-05-20T01:55:43.294Z,9.711624
2023-05-20T01:56:43.293Z,9.711670
2023-05-20T01:57:43.265Z,9.711680
2023-05-20T01:58:43.258Z,9.711773
2023-05-20T01:59:43.248Z,9.711636
2023-05-20T02:00:43.887Z,9.711727
2023-05-20T02:01:43.300Z,9.711625
2023-05-20T02:02:43.400Z,9.711622
2023-05-20T02:03:43.232Z,9.711663
2023-05-20T02:04:43.199Z,9.711557
2023-05-20T02:05:43.286Z,9.711715
2023-05-20T02:06:43.184Z,9.711581
2023-05-20T02:07:43.906Z,9.711670
2023-05-20T02:08:43.301Z,9.711652
2023-05-20T02:09:43.197Z,9.711498
2023-05-20T02:10:43.167Z,9.711637
2023-05-20T02:11:43.151Z,9.711649
2023-05-20T02:12:43.185Z,9.711609
2023-05-20T02:13:43.146Z,9.711643
2023-05-20T02:14:43.116Z,9.711680
2023-05-20T02:15:43.101Z,9.711645
2023-05-20T02:16:43.157Z,9.711655
2023-05-20T02:17:43.112Z,9.711638
2023-05-20T02:18:43.438Z,9.711626
2023-05-20T02:19:43.079Z,9.711644
2023-05-20T02:20:43.073Z,9.711658
2023-05-20T02:21:43.062Z,9.711601
2023-05-20T02:22:43.079Z,9.711601
2023-05-20T02:23:43.054Z,9.711682
2023-05-20T02:24:43.082Z,9.711684
2023-05-20T02:25:43.066Z,9.711657
2023-05-20T02:26:43.034Z,9.711640
2023-05-20T02:27:43.019Z,9.711566
2023-05-20T02:28:43.026Z,9.711601
2023-05-20T02:29:43.018Z,9.711472
2023-05-20T02:30:43.007Z,9.711527
2023-05-20T02:31:43.007Z,9.711582
2023-05-20T02:32:42.987Z,9.711629
2023-05-20T02:33:43.054Z,9.711583
2023-05-20T02:34:43.858Z,9.711576
2023-05-20T02:35:42.953Z,9.711611
2023-05-20T02:36:42.957Z,9.711605
2023-05-20T02:37:42.961Z,9.711568
2023-05-20T02:38:42.958Z,9.711574
2023-05-20T02:39:42.926Z,9.711638
2023-05-20T02:40:42.936Z,9.711619
2023-05-20T02:41:42.915Z,9.711680
2023-05-20T02:42:42.904Z,9.711591
2023-05-20T02:43:42.907Z,9.711530
2023-05-20T02:44:43.835Z,9.711539
2023-05-20T02:45:43.205Z,9.711621
2023-05-20T02:46:42.875Z,9.711617
2023-05-20T02:47:42.901Z,9.711617
2023-05-20T02:48:42.867Z,9.711591
2023-05-20T02:49:42.869Z,9.711549
2023-05-20T02:50:42.902Z,9.711583
2023-05-20T02:51:42.846Z,9.711586
2023-05-20T02:52:42.920Z,9.711629
2023-05-20T02:53:42.831Z,9.711660
2023-05-20T02:54:42.838Z,9.711602
2023-05-20T02:55:42.801Z,9.711478
2023-05-20T02:56:42.902Z,9.711603
2023-05-20T02:57:43.413Z,9.711672
2023-05-20T02:58:42.794Z,9.711684
2023-05-20T02:59:42.775Z,9.711633
2023-05-20T03:00:42.745Z,9.711599
2023-05-20T03:01:42.822Z,9.711705
2023-05-20T03:02:42.783Z,9.711836
2023-05-20T03:03:42.739Z,9.711738
2023-05-20T03:04:42.859Z,9.711633
2023-05-20T03:05:42.704Z,9.711598
2023-05-20T03:06:44.338Z,9.711581
2023-05-20T03:07:42.720Z,9.711543
2023-05-20T03:08:42.760Z,9.711536
2023-05-20T03:09:42.681Z,9.711616
2023-05-20T03:10:42.675Z,9.711546
2023-05-20T03:11:42.688Z,9.711503
2023-05-20T03:12:42.687Z,9.711399
2023-05-20T03:13:42.667Z,9.711556
2023-05-20T03:14:42.691Z,9.711696
2023-05-20T03:15:42.701Z,9.711735
2023-05-20T03:16:42.646Z,9.711624
2023-05-20T03:17:42.715Z,9.711672
2023-05-20T03:18:42.619Z,9.711629
2023-05-20T03:19:42.628Z,9.711624
2023-05-20T03:20:42.627Z,9.711768
2023-05-20T03:21:42.608Z,9.711682
2023-05-20T03:22:42.592Z,9.711720
2023-05-20T03:23:42.590Z,9.711624
2023-05-20T03:24:44.435Z,9.711665
2023-05-20T03:25:42.545Z,9.711608
2023-05-20T03:26:42.557Z,9.711551
2023-05-20T03:27:42.538Z,9.711564
2023-05-20T03:28:42.541Z,9.711595
2023-05-20T03:29:42.528Z,9.711477
2023-05-20T03:30:42.528Z,9.711568
2023-05-20T03:31:42.535Z,9.711667
2023-05-20T03:32:42.617Z,9.711575
2023-05-20T03:33:42.491Z,9.711574
2023-05-20T03:34:42.930Z,9.711532
2023-05-20T03:35:42.500Z,9.711617
2023-05-20T03:36:42.468Z,9.711674
2023-05-20T03:37:43.350Z,9.711695
2023-05-20T03:38:42.448Z,9.711613
2023-05-20T03:39:42.449Z,9.711591
2023-05-20T03:40:42.453Z,9.711609
2023-05-20T03:41:43.344Z,9.711628
2023-05-20T03:42:42.427Z,9.711697
2023-05-20T03:43:42.402Z,9.711668
2023-05-20T03:44:42.454Z,9.711612
2023-05-20T03:45:42.392Z,9.711589
2023-05-20T03:46:42.401Z,9.711637
2023-05-20T03:47:42.402Z,9.711596
2023-05-20T03:48:42.385Z,9.711740
2023-05-20T03:49:42.397Z,9.711741
2023-05-20T03:50:42.345Z,9.711705
2023-05-20T03:51:42.349Z,9.711598
2023-05-20T03:52:42.343Z,9.711578
2023-05-20T03:53:42.353Z,9.711663
2023-05-20T03:54:42.345Z,9.711756
2023-05-20T03:55:42.341Z,9.711739
2023-05-20T03:56:42.311Z,9.711699
2023-05-20T03:57:42.296Z,9.711651
2023-05-20T03:58:42.327Z,9.711604
2023-05-20T03:59:42.283Z,9.711658
2023-05-20T04:00:42.280Z,9.711679
2023-05-20T04:01:42.293Z,9.711620
2023-05-20T04:02:42.344Z,9.711633
2023-05-20T04:03:42.408Z,9.711679
2023-05-20T04:04:42.236Z,9.711697
2023-05-20T04:05:42.264Z,9.711680
2023-05-20T04:06:42.244Z,9.711756
2023-05-20T04:07:42.225Z,9.711677
2023-05-20T04:08:42.225Z,9.711694
2023-05-20T04:09:42.218Z,9.711768
2023-05-20T04:10:42.195Z,9.711773
2023-05-20T04:11:42.176Z,9.711877
2023-05-20T04:12:42.843Z,9.711778
2023-05-20T04:13:42.175Z,9.711731
2023-05-20T04:14:42.232Z,9.711621
2023-05-20T04:15:42.206Z,9.711629
2023-05-20T04:16:42.167Z,9.711691
2023-05-20T04:17:42.181Z,9.711709
2023-05-20T04:18:42.168Z,9.711570
2023-05-20T04:19:42.129Z,9.711566
2023-05-20T04:20:42.138Z,9.711449
2023-05-20T04:21:42.116Z,9.711495
2023-05-20T04:22:42.125Z,9.711706
2023-05-20T04:23:42.110Z,9.711697
2023-05-20T04:24:42.092Z,9.711750
2023-05-20T04:25:42.211Z,9.711699
2023-05-20T04:26:42.066Z,9.711542
2023-05-20T04:27:42.081Z,9.711692
2023-05-20T04:28:42.144Z,9.711765
2023-05-20T04:29:42.041Z,9.711657
2023-05-20T04:30:42.036Z,9.711596
2023-05-20T04:31:42.086Z,9.711610
2023-05-20T04:32:42.055Z,9.711669
2023-05-20T04:33:42.008Z,9.711719
2023-05-20T04:34:42.022Z,9.711739
2023-05-20T04:35:42.020Z,9.711609
2023-05-20T04:36:41.982Z,9.711555
2023-05-20T04:37:42.011Z,9.711509
2023-05-20T04:38:41.974Z,9.711542
2023-05-20T04:39:41.987Z,9.711649
2023-05-20T04:40:41.956Z,9.711656
2023-05-20T04:41:41.958Z,9.711724
2023-05-20T04:42:41.934Z,9.711877
2023-05-20T04:43:42.967Z,9.711611
2023-05-20T04:44:42.536Z,9.711393
2023-05-20T04:45:42.957Z,9.711331
2023-05-20T04:46:41.932Z,9.711404
2023-05-20T04:47:41.990Z,9.711392
2023-05-20T04:48:41.927Z,9.711696
2023-05-20T04:49:41.885Z,9.711768
2023-05-20T04:50:41.900Z,9.711750
2023-05-20T04:51:41.883Z,9.711767
2023-05-20T04:52:41.928Z,9.711773
2023-05-20T04:53:43.190Z,9.711787
2023-05-20T04:54:41.833Z,9.711764
2023-05-20T04:55:41.868Z,9.711817
2023-05-20T04:56:41.828Z,9.711796
2023-05-20T04:57:42.381Z,9.711772
2023-05-20T04:58:41.828Z,9.711766
2023-05-20T04:59:41.826Z,9.711786
2023-05-20T05:00:41.804Z,9.711720
2023-05-20T05:01:41.882Z,9.711825
2023-05-20T05:02:42.449Z,9.711779
2023-05-20T05:03:41.791Z,9.711708
2023-05-20T05:04:41.815Z,9.711758
2023-05-20T05:05:41.780Z,9.711759
2023-05-20T05:11:49.816Z,9.711749
2023-05-20T05:12:49.811Z,9.711848
2023-05-20T05:13:49.794Z,9.711755
2023-05-20T05:14:49.796Z,9.711841
2023-05-20T05:15:49.908Z,9.711791
2023-05-20T05:16:50.610Z,9.711837
2023-05-20T05:17:49.798Z,9.711884
2023-05-20T05:18:49.785Z,9.711806
2023-05-20T05:19:49.764Z,9.711992
2023-05-20T05:20:51.613Z,9.711761
2023-05-20T05:21:49.749Z,9.711830
2023-05-20T05:22:49.748Z,9.711914
2023-05-20T05:23:49.701Z,9.711873
2023-05-20T05:24:49.708Z,9.712145
2023-05-20T05:25:49.693Z,9.711769
2023-05-20T05:26:49.685Z,9.712055
2023-05-20T05:27:49.685Z,9.711983
2023-05-20T05:28:49.683Z,9.711913
2023-05-20T05:29:50.654Z,9.712053
2023-05-20T05:30:49.655Z,9.712611
2023-05-20T05:31:49.694Z,9.712420
2023-05-20T05:32:49.767Z,9.712144
2023-05-20T05:33:49.638Z,9.711983
2023-05-20T05:34:49.645Z,9.711582
2023-05-20T05:35:49.656Z,9.711916
2023-05-20T05:36:49.718Z,9.711751
2023-05-20T05:37:49.635Z,9.711708
2023-05-20T05:38:49.586Z,9.711660
2023-05-20T05:39:49.603Z,9.711629
2023-05-20T05:40:49.581Z,9.711580
2023-05-20T05:41:49.565Z,9.711645
2023-05-20T05:42:49.559Z,9.711736
2023-05-20T05:43:49.555Z,9.711748
2023-05-20T05:44:49.565Z,9.711740
2023-05-20T05:45:49.558Z,9.711773
2023-05-20T05:46:49.560Z,9.711811
2023-05-20T05:47:49.596Z,9.711831
2023-05-20T05:48:49.507Z,9.711721
2023-05-20T05:49:49.525Z,9.711668
2023-05-20T05:50:49.494Z,9.711762
2023-05-20T05:51:49.497Z,9.711822
2023-05-20T05:52:49.471Z,9.711746
2023-05-20T05:53:49.498Z,9.711741
2023-05-20T05:54:49.450Z,9.711698
2023-05-20T05:55:49.451Z,9.711643
2023-05-20T05:56:49.472Z,9.711704
2023-05-20T05:57:50.438Z,9.711694
2023-05-20T05:58:49.460Z,9.711666
2023-05-20T05:59:49.437Z,9.711597
2023-05-20T06:00:49.437Z,9.711612
2023-05-20T06:01:49.441Z,9.711642
2023-05-20T06:02:49.671Z,9.711644
2023-05-20T06:03:49.453Z,9.711661
2023-05-20T06:04:49.388Z,9.711602
2023-05-20T06:05:49.377Z,9.711691
2023-05-20T06:06:49.373Z,9.711662
2023-05-20T06:07:49.370Z,9.711740
2023-05-20T06:08:49.348Z,9.711652
2023-05-20T06:09:49.347Z,9.711676
2023-05-20T06:10:49.346Z,9.711667
2023-05-20T06:11:49.378Z,9.711558
2023-05-20T06:12:49.326Z,9.711528
2023-05-20T06:13:49.310Z,9.711520
2023-05-20T06:14:49.289Z,9.711530
2023-05-20T06:15:49.275Z,9.711439
2023-05-20T06:16:49.338Z,9.711342
2023-05-20T06:17:49.281Z,9.711276
2023-05-20T06:18:49.325Z,9.711173
2023-05-20T06:19:49.716Z,9.710966
2023-05-20T06:20:49.246Z,9.711576
2023-05-20T06:21:49.228Z,9.711676
2023-05-20T06:22:49.230Z,9.711701
2023-05-20T06:23:49.222Z,9.711681
2023-05-20T06:24:49.228Z,9.711662
2023-05-20T06:25:49.213Z,9.711550
2023-05-20T06:26:49.178Z,9.711446
2023-05-20T06:27:50.181Z,9.711475
2023-05-20T06:28:49.199Z,9.711597
2023-05-20T06:29:49.179Z,9.711507
2023-05-20T06:30:49.234Z,9.711473
2023-05-20T06:31:49.136Z,9.711529
2023-05-20T06:32:49.217Z,9.711628
2023-05-20T06:33:49.161Z,9.711584
2023-05-20T06:34:49.207Z,9.711586
2023-05-20T06:35:49.119Z,9.711609
2023-05-20T06:36:49.197Z,9.711588
2023-05-20T06:37:49.163Z,9.711630
2023-05-20T06:38:49.112Z,9.711611
2023-05-20T06:39:49.682Z,9.711579
2023-05-20T06:40:49.068Z,9.711597
2023-05-20T06:41:49.093Z,9.711607
2023-05-20T06:42:49.622Z,9.711616
2023-05-20T06:43:52.598Z,9.711672
2023-05-20T06:44:49.074Z,9.711665
2023-05-20T06:45:49.069Z,9.711715
2023-05-20T06:46:51.668Z,9.711740
2023-05-20T06:47:49.750Z,9.711679
2023-05-20T06:48:49.020Z,9.711647
2023-05-20T06:49:49.020Z,9.711656
2023-05-20T06:50:48.997Z,9.711807
2023-05-20T06:51:49.082Z,9.711772
2023-05-20T06:52:48.991Z,9.711530
2023-05-20T06:53:48.970Z,9.711628
2023-05-20T06:54:49.635Z,9.711679
2023-05-20T06:55:49.756Z,9.711727
2023-05-20T06:56:48.943Z,9.711691
2023-05-20T06:57:48.941Z,9.711742
2023-05-20T06:58:48.929Z,9.711749
2023-05-20T06:59:48.937Z,9.711773
2023-05-20T07:00:48.913Z,9.711660
2023-05-20T07:01:48.989Z,9.711710
2023-05-20T07:02:48.935Z,9.711740
2023-05-20T07:03:48.937Z,9.711675
2023-05-20T07:04:48.878Z,9.711678
2023-05-20T07:05:49.703Z,9.711774
2023-05-20T07:06:48.863Z,9.711746
2023-05-20T07:07:49.861Z,9.711782
2023-05-20T07:08:51.647Z,9.711752
2023-05-20T07:09:48.847Z,9.711764
2023-05-20T07:10:48.837Z,9.711760
2023-05-20T07:11:48.830Z,9.711721
2023-05-20T07:12:48.825Z,9.711745
2023-05-20T07:13:48.846Z,9.711682
2023-05-20T07:14:50.758Z,9.711761
2023-05-20T07:15:48.826Z,9.711765
2023-05-20T07:16:48.821Z,9.711812
2023-05-20T07:17:48.808Z,9.711845
2023-05-20T07:18:48.789Z,9.711855
2023-05-20T07:19:48.768Z,9.711830
2023-05-20T07:20:48.751Z,9.711804
2023-05-20T07:21:48.760Z,9.711741
2023-05-20T07:22:48.765Z,9.711719
2023-05-20T07:23:48.731Z,9.711509
2023-05-20T07:24:48.725Z,9.711543
2023-05-20T07:25:50.231Z,9.711504
2023-05-20T07:26:48.715Z,9.711616
2023-05-20T07:27:48.702Z,9.711573
2023-05-20T07:28:48.724Z,9.711498
2023-05-20T07:29:48.695Z,9.711607
2023-05-20T07:30:48.669Z,9.711603
2023-05-20T07:31:48.761Z,9.711526
2023-05-20T07:32:48.680Z,9.711554
2023-05-20T07:33:48.640Z,9.711682
2023-05-20T07:34:49.221Z,9.711623
2023-05-20T07:35:48.662Z,9.711794
2023-05-20T07:36:48.636Z,9.711756
2023-05-20T07:37:48.618Z,9.711686
2023-05-20T07:38:57.055Z,9.711247
2023-05-20T07:39:50.595Z,9.711923
2023-05-20T07:40:48.582Z,9.712099
2023-05-20T07:41:49.212Z,9.711885
2023-05-20T07:42:48.599Z,9.711812
2023-05-20T07:43:48.585Z,9.711818
2023-05-20T07:44:48.581Z,9.711885
2023-05-20T07:45:48.617Z,9.711963
2023-05-20T07:46:48.549Z,9.711972
2023-05-20T07:47:48.568Z,9.711849
2023-05-20T07:48:48.549Z,9.711740
2023-05-20T07:49:48.532Z,9.711735
2023-05-20T07:50:48.509Z,9.711765
2023-05-20T07:51:48.496Z,9.711845
2023-05-20T07:53:50.505Z,9.711887
2023-05-20T07:54:48.483Z,9.711889
2023-05-20T07:55:48.484Z,9.711894
2023-05-20T07:56:48.456Z,9.712128
2023-05-20T07:57:48.437Z,9.712225
2023-05-20T07:58:48.468Z,9.712178
2023-05-20T07:59:48.449Z,9.712038
2023-05-20T08:00:48.424Z,9.711900
2023-05-20T08:01:48.507Z,9.712049
2023-05-20T08:02:48.545Z,9.712189
2023-05-20T08:03:48.481Z,9.712222
2023-05-20T08:04:48.402Z,9.712382
2023-05-20T08:05:48.378Z,9.712462
2023-05-20T08:06:48.399Z,9.712147
2023-05-20T08:07:48.370Z,9.711770
2023-05-20T08:08:48.434Z,9.711566
2023-05-20T08:09:48.353Z,9.711582
2023-05-20T08:10:48.349Z,9.711773
2023-05-20T08:11:48.355Z,9.711848
2023-05-20T08:12:48.342Z,9.711879
2023-05-20T08:13:48.342Z,9.711998
2023-05-20T08:14:48.310Z,9.711714
2023-05-20T08:15:48.299Z,9.711609
2023-05-20T08:16:48.381Z,9.711669
2023-05-20T08:17:48.332Z,9.711707
2023-05-20T08:18:48.336Z,9.711708
2023-05-20T08:19:49.149Z,9.711738
2023-05-20T08:20:48.267Z,9.711547
2023-05-20T08:21:48.252Z,9.711563
2023-05-20T08:22:48.250Z,9.711660
2023-05-20T08:23:49.228Z,9.711616
2023-05-20T08:24:48.256Z,9.711563
2023-05-20T08:25:48.233Z,9.711588
2023-05-20T08:26:48.206Z,9.711628
2023-05-20T08:27:48.241Z,9.711640
2023-05-20T08:28:48.229Z,9.711676
2023-05-20T08:29:48.192Z,9.711649
2023-05-20T08:30:48.234Z,9.711673
2023-05-20T08:31:49.730Z,9.711634
2023-05-20T08:32:48.178Z,9.711668
2023-05-20T08:33:48.156Z,9.711632
2023-05-20T08:34:49.150Z,9.711648
2023-05-20T08:35:49.112Z,9.711675
2023-05-20T08:36:48.132Z,9.711667
2023-05-20T08:37:48.252Z,9.711658
2023-05-20T08:38:48.135Z,9.711640
2023-05-20T08:39:48.114Z,9.711661
2023-05-20T08:40:48.094Z,9.711644
2023-05-20T08:41:48.112Z,9.711615
2023-05-20T08:42:50.746Z,9.711568
2023-05-20T08:43:48.088Z,9.711594
2023-05-20T08:44:48.065Z,9.711570
2023-05-20T08:45:48.056Z,9.711591
2023-05-20T08:46:48.120Z,9.711590
2023-05-20T08:47:48.086Z,9.711611
2023-05-20T08:48:48.077Z,9.711649
2023-05-20T08:49:48.066Z,9.711652
2023-05-20T08:50:48.054Z,9.711627
2023-05-20T08:51:48.049Z,9.711617
2023-05-20T08:52:48.016Z,9.711637
2023-05-20T08:53:49.001Z,9.711670
2023-05-20T08:54:48.024Z,9.711665
2023-05-20T08:55:48.005Z,9.711675
2023-05-20T08:56:47.992Z,9.711669
2023-05-20T08:57:47.973Z,9.711669
2023-05-20T08:58:47.957Z,9.711675
2023-05-20T08:59:47.966Z,9.711680
2023-05-20T09:00:47.971Z,9.711644
2023-05-20T09:01:48.048Z,9.711618
2023-05-20T09:02:47.942Z,9.711604
2023-05-20T09:03:47.927Z,9.711586
2023-05-20T09:04:48.002Z,9.711594
2023-05-20T09:05:47.901Z,9.711595
2023-05-20T09:06:47.908Z,9.711584
2023-05-20T09:07:47.924Z,9.711613
2023-05-20T09:08:47.900Z,9.711601
2023-05-20T09:09:47.904Z,9.711568
2023-05-20T09:10:48.906Z,9.711596
2023-05-20T09:11:47.856Z,9.711640
2023-05-20T09:12:47.846Z,9.711584
2023-05-20T09:13:47.865Z,9.711591
2023-05-20T09:14:47.868Z,9.711589
2023-05-20T09:15:47.858Z,9.711598
2023-05-20T09:16:47.844Z,9.711647
2023-05-20T09:17:47.826Z,9.711618
2023-05-20T09:18:47.817Z,9.711526
2023-05-20T09:19:47.789Z,9.711540
2023-05-20T09:20:47.811Z,9.711513
2023-05-20T09:21:47.796Z,9.711547
2023-05-20T09:22:47.780Z,9.711574
2023-05-20T09:23:47.762Z,9.711694
2023-05-20T09:24:47.761Z,9.711721
2023-05-20T09:25:47.752Z,9.711621
2023-05-20T09:26:47.733Z,9.711563
2023-05-20T09:27:47.752Z,9.711632
2023-05-20T09:28:47.750Z,9.711707
2023-05-20T09:29:49.170Z,9.711600
2023-05-20T09:30:47.731Z,9.711789
2023-05-20T09:31:47.765Z,9.711671
2023-05-20T09:32:47.700Z,9.711673
2023-05-20T09:33:47.679Z,9.711723
2023-05-20T09:34:47.662Z,9.711625
2023-05-20T09:35:47.658Z,9.711638
2023-05-20T09:36:47.672Z,9.711629
2023-05-20T09:37:47.703Z,9.711617
2023-05-20T09:38:47.709Z,9.711668
2023-05-20T09:39:47.620Z,9.711788
2023-05-20T09:40:49.162Z,9.711742
2023-05-20T09:41:47.621Z,9.711859
2023-05-20T09:42:47.600Z,9.711931
2023-05-20T09:43:47.607Z,9.711815
2023-05-20T09:44:47.581Z,9.712327
2023-05-20T09:45:47.601Z,9.711911
2023-05-20T09:46:47.570Z,9.711976
2023-05-20T09:47:47.585Z,9.712039
2023-05-20T09:48:47.585Z,9.711916
2023-05-20T09:49:47.570Z,9.711693
2023-05-20T09:50:47.547Z,9.711469
2023-05-20T09:51:47.553Z,9.711590
2023-05-20T09:52:47.562Z,9.711740
2023-05-20T09:53:47.533Z,9.711837
2023-05-20T09:54:47.504Z,9.711895
2023-05-20T09:55:47.552Z,9.711926
2023-05-20T09:56:47.513Z,9.711732
2023-05-20T09:57:47.489Z,9.711473
2023-05-20T09:58:47.499Z,9.711677
2023-05-20T09:59:47.486Z,9.711852
2023-05-20T10:00:47.478Z,9.711910
2023-05-20T10:01:47.493Z,9.711891
2023-05-20T10:02:47.497Z,9.711755
2023-05-20T10:03:47.580Z,9.711573
2023-05-20T10:04:48.231Z,9.711555
2023-05-20T10:05:48.413Z,9.711829
2023-05-20T10:06:47.409Z,9.711742
2023-05-20T10:07:47.399Z,9.711843
2023-05-20T10:08:47.395Z,9.711656
2023-05-20T10:09:47.393Z,9.711814
2023-05-20T10:10:47.391Z,9.711941
2023-05-20T10:11:47.349Z,9.711900
2023-05-20T10:12:49.270Z,9.711761
2023-05-20T10:13:47.403Z,9.711806
2023-05-20T10:14:47.339Z,9.711862
2023-05-20T10:15:47.357Z,9.711949
2023-05-20T10:16:47.343Z,9.711584
2023-05-20T10:17:47.347Z,9.711753
2023-05-20T10:18:47.329Z,9.711990
2023-05-20T10:19:47.301Z,9.711862
2023-05-20T10:20:47.287Z,9.712015
2023-05-20T10:21:47.292Z,9.712072
2023-05-20T10:22:47.272Z,9.712208
2023-05-20T10:23:47.287Z,9.712289
2023-05-20T10:24:47.411Z,9.712328
2023-05-20T10:25:47.282Z,9.712590
2023-05-20T10:26:47.800Z,9.712384
2023-05-20T10:27:47.236Z,9.712221
2023-05-20T10:28:48.195Z,9.712431
2023-05-20T10:30:47.208Z,9.712197
2023-05-20T10:31:47.229Z,9.712010
2023-05-20T10:32:47.289Z,9.712109
2023-05-20T10:33:47.306Z,9.712353
2023-05-20T10:34:47.165Z,9.712270
2023-05-20T10:35:47.176Z,9.712045
2023-05-20T10:36:47.150Z,9.712161
2023-05-20T10:37:47.153Z,9.711979
2023-05-20T10:38:47.142Z,9.711939
2023-05-20T10:39:47.143Z,9.711818
2023-05-20T10:40:47.125Z,9.711805
2023-05-20T10:41:47.111Z,9.711920
2023-05-20T10:42:48.114Z,9.712227
2023-05-20T10:43:47.105Z,9.712074
2023-05-20T10:44:47.098Z,9.711777
2023-05-20T10:45:47.119Z,9.711623
2023-05-20T10:47:06.692Z,9.711354
2023-05-20T10:47:49.100Z,9.711312
2023-05-20T10:48:47.114Z,9.711462
2023-05-20T10:49:47.059Z,9.711699
2023-05-20T10:50:47.037Z,9.711554
2023-05-20T10:51:47.046Z,9.711415
2023-05-20T10:52:47.029Z,9.711376
2023-05-20T10:53:47.800Z,9.711469
2023-05-20T10:54:50.193Z,9.711485
2023-05-20T10:55:47.000Z,9.711314
2023-05-20T10:56:48.820Z,9.711390
2023-05-20T10:57:46.987Z,9.711571
2023-05-20T10:58:49.827Z,9.711546
2023-05-20T10:59:47.818Z,9.711555
2023-05-20T11:00:47.989Z,9.711544
2023-05-20T11:01:46.982Z,9.711463
2023-05-20T11:02:48.119Z,9.711467
2023-05-20T11:03:49.883Z,9.711314
2023-05-20T11:04:46.925Z,9.711558
2023-05-20T11:05:46.897Z,9.711475
2023-05-20T11:06:46.917Z,9.711384
2023-05-20T11:07:46.910Z,9.711422
2023-05-20T11:08:46.905Z,9.711514
2023-05-20T11:09:46.881Z,9.711418
2023-05-20T11:10:47.982Z,9.711735
2023-05-20T11:11:48.723Z,9.711604
2023-05-20T11:12:47.303Z,9.711617
2023-05-20T11:13:46.851Z,9.711759
2023-05-20T11:14:46.853Z,9.711583
2023-05-20T11:15:47.711Z,9.711528
2023-05-20T11:16:46.858Z,9.711562
2023-05-20T11:17:46.857Z,9.711594
2023-05-20T11:18:46.815Z,9.711613
2023-05-20T11:19:46.832Z,9.711590
2023-05-20T11:20:46.837Z,9.711630
2023-05-20T11:21:46.791Z,9.711626
2023-05-20T11:22:46.776Z,9.711674
2023-05-20T11:23:47.304Z,9.711720
2023-05-20T11:24:46.764Z,9.711700
2023-05-20T11:25:46.761Z,9.711666
2023-05-20T11:26:46.753Z,9.711609
2023-05-20T11:27:46.765Z,9.711600
2023-05-20T11:28:46.739Z,9.711566
2023-05-20T11:29:46.751Z,9.711572
2023-05-20T11:30:46.704Z,9.711577
2023-05-20T11:31:46.754Z,9.711586
2023-05-20T11:32:46.815Z,9.711592
2023-05-20T11:33:47.720Z,9.711558
2023-05-20T11:34:46.724Z,9.711596
2023-05-20T11:35:46.686Z,9.711611
2023-05-20T11:36:46.662Z,9.711605
2023-05-20T11:37:46.649Z,9.711522
2023-05-20T11:38:46.645Z,9.711518
2023-05-20T11:39:47.300Z,9.711562
2023-05-20T11:40:51.007Z,9.711516
2023-05-20T11:41:48.636Z,9.711525
2023-05-20T11:42:46.621Z,9.711525
2023-05-20T11:43:46.611Z,9.711510
2023-05-20T11:44:46.592Z,9.711576
2023-05-20T11:45:46.634Z,9.711619
2023-05-20T11:46:46.595Z,9.711638
2023-05-20T11:47:47.253Z,9.711615
2023-05-20T11:48:46.563Z,9.711636
2023-05-20T11:49:46.591Z,9.711633
2023-05-20T11:50:46.583Z,9.711637
2023-05-20T11:51:47.229Z,9.711659
2023-05-20T11:52:46.538Z,9.711660
2023-05-20T11:53:46.533Z,9.711706
2023-05-20T11:54:47.268Z,9.711604
2023-05-20T11:55:46.512Z,9.711699
2023-05-20T11:56:46.520Z,9.711735